Time;durP1;ratioP1;P1;durP2;ratioP2;P2;SDS_P1;SDS_P2;PMS_P1;PMS_P2;Temp;Humidity;BMP_temperature;BMP_pressure;BME280_temperature;BME280_humidity;BME280_pressure;Samples;Min_cycle;Max_cycle;Signal;HPM_P1;HPM_P2
2023/09/30 05:21:25;;;;;;;;;;;;;;;7.82;100.00;100620.81;5000289;28;20124;-82
2023/09/30 05:23:50;;;;;;;;;;;;;;;7.84;100.00;100613.75;5002537;28;20459;-81
2023/09/30 05:26:16;;;;;;;;;;;;;;;7.83;100.00;100619.91;5003991;28;20387;-81
2023/09/30 05:28:42;;;;;;;;;;;;;;;7.86;100.00;100624.25;5003790;28;20330;-81
2023/09/30 05:31:07;;;;;;;;;;;;;;;7.87;100.00;100628.66;5002229;28;20398;-80
2023/09/30 05:33:33;;;;;;;;;;;;;;;7.84;100.00;100637.47;5000915;28;19922;-82
2023/09/30 05:35:59;;;;;;;;;;;;;;;7.79;100.00;100634.94;5003912;28;20307;-82
2023/09/30 05:38:26;;;;;;;;;;;;;;;7.81;100.00;100633.13;5003793;28;19922;-82
2023/09/30 05:40:51;;;;;;;;;;;;;;;7.86;100.00;100642.72;5003279;28;20158;-81
2023/09/30 05:43:16;;;;;;;;;;;;;;;7.84;100.00;100655.97;5002527;28;20035;-82
2023/09/30 05:45:49;;;;;;;;;;;;;;;7.89;100.00;100663.78;5003712;28;20320;-81
2023/09/30 05:48:14;;;;;;;;;;;;;;;7.91;100.00;100662.84;5002063;28;19937;-80
2023/09/30 05:50:39;;;;;;;;;;;;;;;7.86;100.00;100656.78;5003818;28;19917;-81
2023/09/30 05:53:05;;;;;;;;;;;;;;;7.86;100.00;100663.84;5002328;28;19928;-81
2023/09/30 05:55:30;;;;;;;;;;;;;;;7.87;100.00;100658.53;5018257;28;20281;-81
2023/09/30 05:57:55;;;;;;;;;;;;;;;7.84;100.00;100663.88;5001640;28;19944;-82
2023/09/30 06:00:30;;;;;;;;;;;;;;;7.86;100.00;100658.56;4998559;28;19965;-80
2023/09/30 06:02:56;;;;;;;;;;;;;;;7.85;100.00;100662.09;5002506;28;20008;-80
2023/09/30 06:05:26;;;;;;;;;;;;;;;7.85;100.00;100649.78;5001175;28;20391;-81
2023/09/30 06:07:53;;;;;;;;;;;;;;;7.80;100.00;100652.50;5001957;28;19945;-81
2023/09/30 06:10:19;;;;;;;;;;;;;;;7.84;100.00;100660.38;5002011;28;19996;-82
2023/09/30 06:12:46;;;;;;;;;;;;;;;7.87;100.00;100658.53;5001578;28;20017;-83
2023/09/30 06:15:13;;;;;;;;;;;;;;;7.86;100.00;100654.16;5003126;28;19919;-82
2023/09/30 06:17:38;;;;;;;;;;;;;;;7.88;100.00;100668.22;5001385;28;19956;-82
2023/09/30 06:20:09;;;;;;;;;;;;;;;7.89;100.00;100667.28;5001226;28;19981;-81
2023/09/30 06:22:34;;;;;;;;;;;;;;;7.87;100.00;100677.00;5000424;28;20363;-81
2023/09/30 06:24:59;;;;;;;;;;;;;;;7.94;100.00;100661.94;5001541;28;20005;-82
2023/09/30 06:27:24;;;;;;;;;;;;;;;7.89;100.00;100667.28;5001295;28;19940;-82
2023/09/30 06:29:50;;;;;;;;;;;;;;;7.90;100.00;100676.09;5018081;28;19917;-81
2023/09/30 06:32:15;;;;;;;;;;;;;;;7.87;100.00;100673.50;5002995;28;19925;-81
2023/09/30 06:34:40;;;;;;;;;;;;;;;7.84;100.00;100677.06;5001201;28;19924;-81
2023/09/30 06:37:06;;;;;;;;;;;;;;;7.89;100.00;100675.22;5002399;28;19922;-81
2023/09/30 06:39:31;;;;;;;;;;;;;;;7.84;100.00;100670.94;5002709;28;20357;-81
2023/09/30 06:41:56;;;;;;;;;;;;;;;7.84;100.00;100678.84;5002876;28;19925;-80
2023/09/30 06:44:24;;;;;;;;;;;;;;;7.88;100.00;100686.69;5002563;28;19918;-81
2023/09/30 06:46:50;;;;;;;;;;;;;;;7.84;100.00;100678.84;5002382;28;19929;-85
2023/09/30 06:49:15;;;;;;;;;;;;;;;7.82;100.00;100673.59;5000311;28;19939;-84
2023/09/30 06:51:41;;;;;;;;;;;;;;;7.82;100.00;100674.44;5002510;28;20400;-85
2023/09/30 06:54:06;;;;;;;;;;;;;;;7.86;100.00;100669.13;5001098;28;19922;-84
2023/09/30 06:56:31;;;;;;;;;;;;;;;7.88;100.00;100667.31;5002585;28;19918;-85
2023/09/30 06:58:57;;;;;;;;;;;;;;;7.84;100.00;100671.78;5002846;28;19921;-86
2023/09/30 07:01:23;;;;;;;;;;;;;;;7.84;100.00;100663.00;5002411;28;19964;-81
2023/09/30 07:03:48;;;;;;;;;;;;;;;7.79;100.00;100669.22;5000962;28;19929;-85
2023/09/30 07:06:21;;;;;;;;;;;;;;;7.84;100.00;100668.28;5002251;28;19989;-85
2023/09/30 07:35:46;;;;;;;;;;;;;;;7.79;100.00;100713.22;5043021;23;20351;-88
2023/09/30 07:38:12;;;;;;;;;;;;;;;7.77;100.00;100715.88;5032515;28;19921;-82
2023/09/30 07:40:37;;;;;;;;;;;;;;;7.78;100.00;100714.09;5025589;28;19924;-82
2023/09/30 07:43:02;;;;;;;;;;;;;;;7.77;100.00;100713.25;5025925;28;20004;-82
2023/09/30 07:45:28;;;;;;;;;;;;;;;7.80;100.00;100697.38;5024120;28;20292;-82
2023/09/30 07:47:53;;;;;;;;;;;;;;;7.84;100.00;100692.03;5023826;28;19975;-82
2023/09/30 07:50:18;;;;;;;;;;;;;;;7.85;100.00;100691.13;5024511;28;19960;-82
2023/09/30 07:52:44;;;;;;;;;;;;;;;7.81;100.00;100699.09;5025437;28;19944;-82
2023/09/30 07:55:10;;;;;;;;;;;;;;;7.85;100.00;100688.47;5023941;28;19918;-82
2023/09/30 07:57:36;;;;;;;;;;;;;;;7.82;100.00;100685.00;5025003;28;20503;-82
2023/09/30 08:00:01;;;;;;;;;;;;;;;7.85;100.00;100688.47;5025376;28;19917;-79
2023/09/30 08:02:33;;;;;;;;;;;;;;;7.85;100.00;100683.19;5024947;28;19924;-80
2023/09/30 08:04:59;;;;;;;;;;;;;;;7.86;100.00;100684.94;5023958;28;19917;-80
2023/09/30 08:07:24;;;;;;;;;;;;;;;7.85;100.00;100691.13;5025437;28;19925;-81
2023/09/30 08:09:50;;;;;;;;;;;;;;;7.85;100.00;100694.66;5024547;28;19917;-79
2023/09/30 08:12:15;;;;;;;;;;;;;;;7.86;100.00;100704.28;5023656;28;19948;-81
2023/09/30 08:14:40;;;;;;;;;;;;;;;7.84;100.00;100692.03;5024103;28;19917;-79
2023/09/30 08:17:06;;;;;;;;;;;;;;;7.85;100.00;100693.75;5024848;28;19925;-81
2023/09/30 08:19:31;;;;;;;;;;;;;;;7.82;100.00;100689.41;5029504;28;19964;-80
2023/09/30 08:21:56;;;;;;;;;;;;;;;7.82;100.00;100690.28;5023223;28;19929;-78
2023/09/30 08:24:22;;;;;;;;;;;;;;;7.82;100.00;100700.84;5023631;28;19917;-80
2023/09/30 08:26:47;;;;;;;;;;;;;;;7.83;100.00;100693.78;5024520;28;20273;-79
2023/09/30 08:29:12;;;;;;;;;;;;;;;7.80;100.00;100692.09;5025137;28;19917;-79
2023/09/30 08:31:38;;;;;;;;;;;;;;;7.82;100.00;100698.19;5039949;28;19952;-79
2023/09/30 08:34:03;;;;;;;;;;;;;;;7.80;100.00;100697.38;5021776;28;20398;-79
2023/09/30 08:36:29;;;;;;;;;;;;;;;7.85;100.00;100699.03;5024538;28;20015;-78
2023/09/30 08:38:55;;;;;;;;;;;;;;;7.87;100.00;100705.19;5024744;28;20360;-79
2023/09/30 08:41:33;;;;;;;;;;;;;;;7.88;100.00;100704.25;5024600;28;19928;-81
2023/09/30 08:44:02;;;;;;;;;;;;;;;7.87;100.00;100711.31;5023903;28;19928;-80
2023/09/30 08:46:31;;;;;;;;;;;;;;;7.87;100.00;100732.44;5024438;28;19917;-81
2023/09/30 08:48:57;;;;;;;;;;;;;;;7.90;100.00;100723.59;5022287;28;20347;-80
2023/09/30 08:51:23;;;;;;;;;;;;;;;7.89;100.00;100727.13;5023252;28;19992;-80
2023/09/30 08:53:50;;;;;;;;;;;;;;;7.89;100.00;100714.78;5024246;28;20024;-79
2023/09/30 08:56:16;;;;;;;;;;;;;;;7.87;100.00;100713.97;5023237;28;19965;-83
2023/09/30 08:58:41;;;;;;;;;;;;;;;7.90;100.00;100723.59;5022766;28;19960;-79
2023/09/30 09:01:09;;;;;;;;;;;;;;;7.90;100.00;100720.97;5023837;28;19944;-82
2023/09/30 09:03:36;;;;;;;;;;;;;;;7.90;100.00;100734.16;5020323;28;19921;-83
2023/09/30 09:06:02;;;;;;;;;;;;;;;7.89;100.00;100721.84;5023477;28;19925;-84
2023/09/30 09:08:27;;;;;;;;;;;;;;;7.90;100.00;100719.19;5023774;28;20032;-84
2023/09/30 09:10:58;;;;;;;;;;;;;;;7.88;100.00;100717.44;5023961;28;20296;-83
2023/09/30 09:13:24;;;;;;;;;;;;;;;7.91;100.00;100709.50;5023729;28;19924;-83
2023/09/30 09:15:50;;;;;;;;;;;;;;;7.90;100.00;100697.22;5023685;28;20016;-85
2023/09/30 09:18:35;;;;;;;;;;;;;;;7.87;100.00;100691.97;5023648;28;20023;-81
2023/09/30 09:21:08;;;;;;;;;;;;;;;7.88;100.00;100698.97;5024150;28;19929;-83
2023/09/30 09:23:38;;;;;;;;;;;;;;;7.88;100.00;100691.06;5023504;28;19921;-83
2023/09/30 09:26:06;;;;;;;;;;;;;;;7.88;100.00;100701.63;5014101;28;19939;-79
2023/09/30 09:28:35;;;;;;;;;;;;;;;7.91;100.00;100693.66;5023864;28;19972;-80
2023/09/30 09:31:00;;;;;;;;;;;;;;;7.90;100.00;100694.56;5022843;28;19931;-80
2023/09/30 09:33:34;;;;;;;;;;;;;;;7.89;100.00;100691.03;5022538;28;20333;-81
2023/09/30 09:35:59;;;;;;;;;;;;;;;7.88;100.00;100697.25;5022555;28;19921;-78
2023/09/30 09:38:25;;;;;;;;;;;;;;;7.90;100.00;100689.28;5023669;28;20081;-80
2023/09/30 09:40:50;;;;;;;;;;;;;;;7.90;100.00;100698.06;5023359;28;19921;-80
2023/09/30 09:43:16;;;;;;;;;;;;;;;7.91;100.00;100697.16;5023216;28;20016;-81
2023/09/30 09:45:43;;;;;;;;;;;;;;;7.90;100.00;100702.50;5022962;28;19921;-78
2023/09/30 09:48:09;;;;;;;;;;;;;;;7.92;100.00;100701.53;5021996;28;19924;-79
2023/09/30 09:50:35;;;;;;;;;;;;;;;7.91;100.00;100694.50;5021841;28;19917;-79
2023/09/30 09:53:02;;;;;;;;;;;;;;;7.95;100.00;100698.00;5023487;28;19944;-79
2023/09/30 09:55:27;;;;;;;;;;;;;;;7.98;100.00;100703.22;5023193;28;19917;-78
2023/09/30 09:57:54;;;;;;;;;;;;;;;7.94;100.00;100696.25;5022423;28;19917;-80
2023/09/30 10:00:20;;;;;;;;;;;;;;;7.96;100.00;100689.16;5022137;28;19918;-79
2023/09/30 10:02:46;;;;;;;;;;;;;;;7.94;100.00;100685.69;5022822;28;19960;-81
2023/09/30 10:05:12;;;;;;;;;;;;;;;7.95;100.00;100692.72;5021304;28;20329;-79
2023/09/30 10:07:39;;;;;;;;;;;;;;;7.93;100.00;100681.28;5022757;28;19918;-80
2023/09/30 10:10:08;;;;;;;;;;;;;;;7.92;100.00;100669.03;5022810;28;19928;-80
2023/09/30 10:12:39;;;;;;;;;;;;;;;7.90;100.00;100660.28;5022697;28;19917;-81
2023/09/30 10:15:23;;;;;;;;;;;;;;;7.97;100.00;100661.88;5022166;28;19927;-79
2023/09/30 10:17:58;;;;;;;;;;;;;;;7.97;100.00;100667.16;5022375;28;19917;-81
2023/09/30 10:20:30;;;;;;;;;;;;;;;7.92;100.00;100663.75;5020792;28;19928;-81
2023/09/30 10:23:14;;;;;;;;;;;;;;;7.90;100.00;100663.75;5022243;28;19921;-82
2023/09/30 10:25:41;;;;;;;;;;;;;;;7.96;100.00;100654.84;5022616;28;19996;-78
2023/09/30 10:28:25;;;;;;;;;;;;;;;7.96;100.00;100657.50;5037786;28;19926;-78
2023/09/30 10:31:10;;;;;;;;;;;;;;;7.96;100.00;100663.66;5037928;28;19921;-79
2023/09/30 10:33:36;;;;;;;;;;;;;;;7.93;100.00;100661.06;5021339;28;20542;-78
2023/09/30 10:36:03;;;;;;;;;;;;;;;7.94;100.00;100654.88;5020947;28;20012;-79
2023/09/30 10:38:34;;;;;;;;;;;;;;;7.97;100.00;100656.59;5021191;28;19967;-81
2023/09/30 10:41:02;;;;;;;;;;;;;;;8.00;100.00;100652.13;5022098;28;19940;-80
2023/09/30 10:43:37;;;;;;;;;;;;;;;7.97;100.00;100651.31;5022552;28;20368;-78
2023/09/30 10:46:07;;;;;;;;;;;;;;;7.96;100.00;100653.09;5021113;28;19963;-78
2023/09/30 10:48:34;;;;;;;;;;;;;;;7.99;100.00;100647.78;5026633;28;20293;-79
2023/09/30 10:51:01;;;;;;;;;;;;;;;7.96;100.00;100650.47;5022210;28;19921;-78
2023/09/30 10:53:30;;;;;;;;;;;;;;;7.98;100.00;100650.44;5022438;28;19921;-80
2023/09/30 10:55:57;;;;;;;;;;;;;;;8.01;100.00;100653.03;5036747;28;19926;-78
2023/09/30 10:58:38;;;;;;;;;;;;;;;7.98;100.00;100653.06;5021001;28;20284;-78
2023/09/30 11:01:04;;;;;;;;;;;;;;;8.01;100.00;100647.75;5022398;28;19920;-80
2023/09/30 11:03:30;;;;;;;;;;;;;;;8.00;100.00;100646.00;5019802;28;20033;-79
2023/09/30 11:05:55;;;;;;;;;;;;;;;7.99;100.00;100644.25;5021812;28;20411;-78
2023/09/30 11:08:22;;;;;;;;;;;;;;;8.03;100.00;100640.66;5023883;28;19980;-80
2023/09/30 11:10:48;;;;;;;;;;;;;;;8.03;100.00;100645.94;5024688;28;19921;-80
2023/09/30 11:13:15;;;;;;;;;;;;;;;8.00;100.00;100649.50;5025174;28;20360;-80
2023/09/30 11:15:40;;;;;;;;;;;;;;;8.04;100.00;100655.59;5026005;28;19917;-79
2023/09/30 11:18:16;;;;;;;;;;;;;;;8.01;100.00;100653.03;5026301;28;19931;-78
2023/09/30 11:20:42;;;;;;;;;;;;;;;8.03;100.00;100658.28;5025040;28;20337;-79
2023/09/30 11:23:08;;;;;;;;;;;;;;;8.04;100.00;100660.88;5025874;28;20012;-79
2023/09/30 11:25:41;;;;;;;;;;;;;;;8.04;100.00;100662.63;5024279;28;19928;-78
2023/09/30 11:28:13;;;;;;;;;;;;;;;8.04;100.00;100660.88;5024513;28;19928;-79
2023/09/30 11:30:52;;;;;;;;;;;;;;;8.03;100.00;100656.50;5025310;28;19967;-83
2023/09/30 11:33:17;;;;;;;;;;;;;;;8.00;100.00;100661.81;5024891;28;19921;-79
2023/09/30 11:35:55;;;;;;;;;;;;;;;8.00;100.00;100648.63;5024569;28;19928;-79
2023/09/30 11:38:20;;;;;;;;;;;;;;;8.03;100.00;100651.22;5025145;28;19918;-81
2023/09/30 11:41:05;;;;;;;;;;;;;;;8.03;100.00;100656.50;5024769;28;19921;-77
2023/09/30 11:43:31;;;;;;;;;;;;;;;8.06;100.00;100651.16;5021638;28;19925;-77
2023/09/30 11:46:08;;;;;;;;;;;;;;;8.07;100.00;100649.38;5025686;28;19921;-78
2023/09/30 11:48:35;;;;;;;;;;;;;;;8.07;100.00;100650.25;5024171;28;19921;-79
2023/09/30 11:51:02;;;;;;;;;;;;;;;8.06;100.00;100643.25;5025336;28;19929;-79
2023/09/30 11:53:28;;;;;;;;;;;;;;;9.15;100.00;100645.38;5024105;28;19964;-81
2023/09/30 11:55:57;;;;;;;;;;;;;;;8.33;100.00;100644.47;5025115;28;20011;-77
2023/09/30 11:58:22;;;;;;;;;;;;;;;8.23;100.00;100642.03;5025210;28;19976;-78
2023/09/30 12:00:50;;;;;;;;;;;;;;;8.16;100.00;100643.94;5025035;28;19925;-79
2023/09/30 12:03:16;;;;;;;;;;;;;;;8.13;100.00;100642.22;5025051;28;19920;-77
2023/09/30 12:05:41;;;;;;;;;;;;;;;8.14;100.00;100628.13;5024213;28;20292;-78
2023/09/30 12:08:06;;;;;;;;;;;;;;;8.15;100.00;100636.91;5024970;28;19920;-79
2023/09/30 12:10:32;;;;;;;;;;;;;;;8.14;100.00;100638.69;5024859;28;19921;-78
2023/09/30 12:12:57;;;;;;;;;;;;;;;8.16;100.00;100633.38;5025181;28;20265;-78
2023/09/30 12:15:22;;;;;;;;;;;;;;;8.14;100.00;100641.31;5023623;28;19918;-78
2023/09/30 12:17:47;;;;;;;;;;;;;;;8.16;100.00;100639.50;5024605;28;20372;-78
2023/09/30 12:20:15;;;;;;;;;;;;;;;8.16;100.00;100639.50;5022131;28;20890;-78
2023/09/30 12:22:40;;;;;;;;;;;;;;;8.19;100.00;100638.59;5022451;28;20004;-78
2023/09/30 12:25:08;;;;;;;;;;;;;;;8.17;100.00;100637.75;5024604;28;20055;-78
2023/09/30 12:27:33;;;;;;;;;;;;;;;8.14;100.00;100627.25;5040114;28;20030;-81
2023/09/30 12:29:59;;;;;;;;;;;;;;;8.09;100.00;100630.00;5024473;28;19965;-78
2023/09/30 12:32:25;;;;;;;;;;;;;;;8.13;100.00;100629.00;5024735;28;19920;-78
2023/09/30 12:34:51;;;;;;;;;;;;;;;8.08;100.00;100622.97;5022798;28;19921;-77
2023/09/30 12:37:16;;;;;;;;;;;;;;;8.07;100.00;100630.91;5024604;28;19928;-78
2023/09/30 12:39:41;;;;;;;;;;;;;;;8.06;100.00;100630.03;5024968;28;19921;-78
2023/09/30 12:42:10;;;;;;;;;;;;;;;8.08;100.00;100628.22;5024278;28;20039;-81
2023/09/30 12:44:35;;;;;;;;;;;;;;;8.06;100.00;100618.59;5023368;28;19921;-79
2023/09/30 12:47:00;;;;;;;;;;;;;;;8.09;100.00;100624.72;5024122;28;19918;-79
2023/09/30 12:49:26;;;;;;;;;;;;;;;8.05;100.00;100623.00;5022557;28;19921;-79
2023/09/30 12:51:51;;;;;;;;;;;;;;;8.07;100.00;100621.19;5024682;28;19917;-80
2023/09/30 12:54:18;;;;;;;;;;;;;;;8.09;100.00;100618.53;5022917;28;19940;-80
2023/09/30 12:56:43;;;;;;;;;;;;;;;8.09;100.00;100626.47;5023123;28;19917;-80
2023/09/30 12:59:08;;;;;;;;;;;;;;;8.12;100.00;100618.47;5023986;28;20339;-80
2023/09/30 13:01:34;;;;;;;;;;;;;;;8.12;100.00;100613.19;5023787;28;19922;-80
2023/09/30 13:03:59;;;;;;;;;;;;;;;8.07;100.00;100605.38;5021214;28;20012;-80
2023/09/30 13:06:24;;;;;;;;;;;;;;;8.05;100.00;100596.63;5024118;28;19921;-80
2023/09/30 13:08:50;;;;;;;;;;;;;;;8.05;100.00;100591.34;5023817;28;19999;-79
2023/09/30 13:11:15;;;;;;;;;;;;;;;8.04;100.00;100591.38;5023594;28;19921;-79
2023/09/30 13:13:40;;;;;;;;;;;;;;;8.04;100.00;100589.63;5022647;28;20007;-79
2023/09/30 13:16:07;;;;;;;;;;;;;;;8.04;100.00;100584.34;5024024;28;19925;-79
2023/09/30 13:18:33;;;;;;;;;;;;;;;8.07;100.00;100586.03;5021994;28;19975;-78
2023/09/30 13:20:58;;;;;;;;;;;;;;;8.06;100.00;100585.19;5023518;28;19929;-79
2023/09/30 13:23:24;;;;;;;;;;;;;;;8.05;100.00;100575.50;5022434;28;19963;-79
2023/09/30 13:25:50;;;;;;;;;;;;;;;8.08;100.00;100574.59;5023458;28;19964;-79
2023/09/30 13:28:15;;;;;;;;;;;;;;;8.06;100.00;100566.69;5023906;28;19921;-79
2023/09/30 13:30:40;;;;;;;;;;;;;;;8.07;100.00;100568.41;5023258;28;19917;-78
2023/09/30 13:33:05;;;;;;;;;;;;;;;8.11;100.00;100567.47;5023251;28;19933;-79
2023/09/30 13:35:31;;;;;;;;;;;;;;;8.13;100.00;100567.44;5022206;28;19927;-77
2023/09/30 13:37:57;;;;;;;;;;;;;;;8.10;100.00;100578.91;5023675;28;20288;-78
2023/09/30 13:40:22;;;;;;;;;;;;;;;8.11;100.00;100570.09;5023264;28;20361;-79
2023/09/30 13:42:47;;;;;;;;;;;;;;;8.09;100.00;100571.91;5021779;28;19923;-79
2023/09/30 13:45:12;;;;;;;;;;;;;;;8.10;100.00;100563.06;5023160;28;20058;-79
2023/09/30 13:47:38;;;;;;;;;;;;;;;8.07;100.00;100565.78;5023318;28;19925;-79
2023/09/30 13:50:04;;;;;;;;;;;;;;;8.09;100.00;100571.03;5021677;28;20026;-81
2023/09/30 13:52:29;;;;;;;;;;;;;;;8.11;100.00;100564.81;5021084;28;20379;-80
2023/09/30 13:54:55;;;;;;;;;;;;;;;8.14;100.00;100563.91;5021532;28;20392;-80
2023/09/30 13:57:20;;;;;;;;;;;;;;;8.13;100.00;100552.47;5022545;28;19918;-80
2023/09/30 13:59:46;;;;;;;;;;;;;;;8.10;100.00;100549.88;5023327;28;19921;-81
2023/09/30 14:02:12;;;;;;;;;;;;;;;8.13;100.00;100552.47;5021648;28;19964;-80
2023/09/30 14:04:37;;;;;;;;;;;;;;;8.12;100.00;100550.75;5020377;28;20317;-80
2023/09/30 14:07:03;;;;;;;;;;;;;;;8.04;100.00;100550.03;5022835;28;19917;-80
2023/09/30 14:09:28;;;;;;;;;;;;;;;8.08;100.00;100554.31;5022777;28;20364;-80
2023/09/30 14:11:54;;;;;;;;;;;;;;;8.06;100.00;100549.97;5022649;28;19917;-81
2023/09/30 14:14:19;;;;;;;;;;;;;;;8.08;100.00;100558.75;5023021;28;19917;-78
2023/09/30 14:16:45;;;;;;;;;;;;;;;8.06;100.00;100561.41;5021851;28;20355;-79
2023/09/30 14:19:13;;;;;;;;;;;;;;;8.07;100.00;100557.00;5022576;28;19944;-80
2023/09/30 14:21:38;;;;;;;;;;;;;;;8.08;100.00;100559.59;5037159;28;20265;-79
2023/09/30 14:24:04;;;;;;;;;;;;;;;8.11;100.00;100559.53;5022658;28;19917;-79
2023/09/30 14:26:29;;;;;;;;;;;;;;;8.06;100.00;100555.25;5023034;28;19924;-80
2023/09/30 14:28:55;;;;;;;;;;;;;;;8.03;100.00;100544.78;5022488;28;19924;-80
2023/09/30 14:31:21;;;;;;;;;;;;;;;8.05;100.00;100545.63;5020790;28;19921;-81
2023/09/30 14:33:46;;;;;;;;;;;;;;;8.02;100.00;100543.88;5021262;28;19955;-81
2023/09/30 14:36:11;;;;;;;;;;;;;;;8.06;100.00;100544.69;5037718;28;20020;-80
2023/09/30 14:38:37;;;;;;;;;;;;;;;8.03;100.00;100545.63;5022567;28;19973;-78
2023/09/30 14:41:06;;;;;;;;;;;;;;;8.03;100.00;100534.22;5022288;28;19921;-79
2023/09/30 14:43:31;;;;;;;;;;;;;;;8.03;100.00;100535.09;5020955;28;19932;-79
2023/09/30 14:45:56;;;;;;;;;;;;;;;8.02;100.00;100537.75;5022096;28;20379;-80
2023/09/30 14:48:22;;;;;;;;;;;;;;;7.99;100.00;100529.00;5027971;28;19937;-80
2023/09/30 14:50:47;;;;;;;;;;;;;;;8.04;100.00;100542.13;5022294;28;19921;-81
2023/09/30 14:53:13;;;;;;;;;;;;;;;8.03;100.00;100540.38;5022307;28;19921;-78
2023/09/30 14:55:38;;;;;;;;;;;;;;;8.00;100.00;100538.63;5022356;28;19924;-80
2023/09/30 14:58:04;;;;;;;;;;;;;;;8.01;100.00;100534.25;5022615;28;19921;-79
2023/09/30 15:00:29;;;;;;;;;;;;;;;7.99;100.00;100533.41;5022164;28;20284;-79
2023/09/30 15:02:54;;;;;;;;;;;;;;;8.06;100.00;100534.13;5022106;28;19917;-80
2023/09/30 15:05:20;;;;;;;;;;;;;;;8.04;100.00;100536.84;5020694;28;19918;-79
2023/09/30 15:07:45;;;;;;;;;;;;;;;8.03;100.00;100536.88;5020836;28;19971;-78
2023/09/30 15:10:11;;;;;;;;;;;;;;;8.05;100.00;100533.28;5022623;28;19917;-83
2023/09/30 15:12:36;;;;;;;;;;;;;;;8.05;100.00;100542.97;5020888;28;19932;-81
2023/09/30 15:15:01;;;;;;;;;;;;;;;8.05;100.00;100538.56;5018829;28;20296;-80
2023/09/30 15:17:27;;;;;;;;;;;;;;;8.08;100.00;100533.22;5020321;28;19976;-80
2023/09/30 15:19:52;;;;;;;;;;;;;;;8.09;100.00;100537.59;5019619;28;20004;-78
2023/09/30 15:22:17;;;;;;;;;;;;;;;8.10;100.00;100528.75;5021800;28;20003;-77
2023/09/30 15:24:43;;;;;;;;;;;;;;;8.08;100.00;100530.56;5037860;28;19921;-76
2023/09/30 15:27:08;;;;;;;;;;;;;;;8.07;100.00;100528.81;5022388;28;19967;-78
2023/09/30 15:29:33;;;;;;;;;;;;;;;8.07;100.00;100527.97;5021736;28;20011;-78
2023/09/30 15:31:58;;;;;;;;;;;;;;;8.08;100.00;100522.66;5021893;28;19963;-80
2023/09/30 15:34:24;;;;;;;;;;;;;;;8.06;100.00;100527.09;5020995;28;20368;-78
2023/09/30 15:36:49;;;;;;;;;;;;;;;8.08;100.00;100527.06;5020426;28;20423;-79
2023/09/30 15:39:14;;;;;;;;;;;;;;;8.08;100.00;100525.28;5021665;28;19924;-80
2023/09/30 15:41:39;;;;;;;;;;;;;;;8.07;100.00;100520.03;5021726;28;19967;-79
2023/09/30 15:44:05;;;;;;;;;;;;;;;8.09;100.00;100526.16;5022256;28;20020;-82
2023/09/30 15:46:31;;;;;;;;;;;;;;;8.07;100.00;100518.25;5020080;28;19918;-79
2023/09/30 15:48:56;;;;;;;;;;;;;;;8.02;100.00;100521.91;5020208;28;20292;-79
2023/09/30 15:51:21;;;;;;;;;;;;;;;8.01;100.00;100518.41;5021707;28;20265;-80
2023/09/30 15:53:46;;;;;;;;;;;;;;;8.06;100.00;100513.00;5022110;28;20398;-78
2023/09/30 15:56:12;;;;;;;;;;;;;;;8.08;100.00;100506.81;5024598;28;19917;-80
2023/09/30 15:58:37;;;;;;;;;;;;;;;8.07;100.00;100505.06;5024968;28;19929;-81
2023/09/30 16:01:02;;;;;;;;;;;;;;;8.08;100.00;100503.31;5025242;28;19917;-81
2023/09/30 16:03:28;;;;;;;;;;;;;;;8.06;100.00;100503.34;5023529;28;19925;-84
2023/09/30 16:05:53;;;;;;;;;;;;;;;8.04;100.00;100497.25;5023762;28;20405;-79
2023/09/30 16:08:19;;;;;;;;;;;;;;;8.06;100.00;100506.00;5025200;28;19929;-78
2023/09/30 16:10:44;;;;;;;;;;;;;;;8.04;100.00;100499.00;5025058;28;20368;-80
2023/09/30 16:13:09;;;;;;;;;;;;;;;8.03;100.00;100506.06;5023687;28;19923;-78
2023/09/30 16:15:38;;;;;;;;;;;;;;;8.06;100.00;100503.34;5024341;28;19957;-78
2023/09/30 16:18:04;;;;;;;;;;;;;;;8.08;100.00;100501.53;5024538;28;20295;-84
2023/09/30 16:20:29;;;;;;;;;;;;;;;8.06;100.00;100498.06;5021696;28;19918;-79
2023/09/30 16:22:55;;;;;;;;;;;;;;;8.04;100.00;100496.34;5024565;28;19917;-82
2023/09/30 16:25:21;;;;;;;;;;;;;;;8.06;100.00;100491.91;5025429;28;19979;-82
2023/09/30 16:27:48;;;;;;;;;;;;;;;8.08;100.00;100495.41;5023341;28;20369;-83
2023/09/30 16:30:14;;;;;;;;;;;;;;;8.07;100.00;100496.28;5025560;28;20277;-82
2023/09/30 16:32:40;;;;;;;;;;;;;;;8.07;100.00;100498.94;5023921;28;19975;-80
2023/09/30 16:35:06;;;;;;;;;;;;;;;8.08;100.00;100496.25;5023125;28;19921;-81
2023/09/30 16:37:32;;;;;;;;;;;;;;;8.12;100.00;100497.94;5024996;28;19917;-81
2023/09/30 16:39:57;;;;;;;;;;;;;;;8.11;100.00;100500.63;5024092;28;20004;-83
2023/09/30 16:42:23;;;;;;;;;;;;;;;8.08;100.00;100504.19;5023986;28;19921;-82
2023/09/30 16:44:50;;;;;;;;;;;;;;;8.09;100.00;100503.28;5023218;28;20452;-80
2023/09/30 16:47:15;;;;;;;;;;;;;;;8.08;100.00;100509.47;5024228;28;19917;-78
2023/09/30 16:49:40;;;;;;;;;;;;;;;8.11;100.00;100514.69;5022836;28;19925;-77
2023/09/30 16:52:07;;;;;;;;;;;;;;;8.08;100.00;100522.66;5024547;28;19921;-83
2023/09/30 16:54:32;;;;;;;;;;;;;;;8.11;100.00;100527.00;5024403;28;19926;-80
2023/09/30 16:56:58;;;;;;;;;;;;;;;8.09;100.00;100521.75;5024537;28;19943;-81
2023/09/30 16:59:24;;;;;;;;;;;;;;;8.12;100.00;100519.06;5024370;28;20283;-80
2023/09/30 17:01:49;;;;;;;;;;;;;;;8.12;100.00;100519.06;5023595;28;19924;-79
2023/09/30 17:04:15;;;;;;;;;;;;;;;8.12;100.00;100529.63;5022820;28;20280;-79
2023/09/30 17:06:41;;;;;;;;;;;;;;;8.08;100.00;100533.22;5022219;28;19924;-79
2023/09/30 17:09:06;;;;;;;;;;;;;;;8.09;100.00;100529.69;5024907;28;19921;-79
2023/09/30 17:11:31;;;;;;;;;;;;;;;8.08;100.00;100535.00;5023425;28;19921;-79
2023/09/30 17:13:56;;;;;;;;;;;;;;;8.07;100.00;100536.75;5022510;28;19921;-80
2023/09/30 17:16:22;;;;;;;;;;;;;;;8.07;100.00;100535.88;5039096;28;19921;-83
2023/09/30 17:18:49;;;;;;;;;;;;;;;8.10;100.00;100541.97;5020698;28;20032;-78
2023/09/30 17:21:15;;;;;;;;;;;;;;;8.10;100.00;100547.25;5023551;28;19967;-78
2023/09/30 17:23:41;;;;;;;;;;;;;;;8.13;100.00;100543.69;5024095;28;20327;-78
2023/09/30 17:26:06;;;;;;;;;;;;;;;8.13;100.00;100544.53;5024214;28;19921;-78
2023/09/30 17:28:32;;;;;;;;;;;;;;;8.11;100.00;100551.63;5023887;28;20430;-78
2023/09/30 17:31:04;;;;;;;;;;;;;;;8.11;100.00;100549.00;5021762;28;19918;-77
2023/09/30 17:33:31;;;;;;;;;;;;;;;8.08;100.00;100548.19;5022325;28;19951;-78
2023/09/30 17:36:00;;;;;;;;;;;;;;;8.08;100.00;100541.13;5023552;28;19925;-80
2023/09/30 17:38:25;;;;;;;;;;;;;;;8.12;100.00;100536.66;5022650;28;19921;-79
2023/09/30 17:40:50;;;;;;;;;;;;;;;8.11;100.00;100543.72;5022039;28;19944;-80
2023/09/30 17:43:16;;;;;;;;;;;;;;;8.06;100.00;100548.22;5023381;28;19921;-82
2023/09/30 17:45:41;;;;;;;;;;;;;;;8.08;100.00;100549.06;5022810;28;20380;-78
2023/09/30 17:48:09;;;;;;;;;;;;;;;8.12;100.00;100552.50;5023251;28;19926;-80
2023/09/30 17:50:34;;;;;;;;;;;;;;;8.15;100.00;100560.34;5022272;28;19929;-80
2023/09/30 17:52:59;;;;;;;;;;;;;;;8.11;100.00;100558.69;5022920;28;19917;-79
2023/09/30 17:55:25;;;;;;;;;;;;;;;8.13;100.00;100564.78;5022996;28;19921;-78
2023/09/30 17:57:50;;;;;;;;;;;;;;;8.16;100.00;100560.31;5022855;28;19975;-79
2023/09/30 18:00:16;;;;;;;;;;;;;;;8.17;100.00;100563.84;5023342;28;20008;-79
2023/09/30 18:02:41;;;;;;;;;;;;;;;8.16;100.00;100570.88;5022612;28;19925;-81
2023/09/30 18:05:07;;;;;;;;;;;;;;;8.17;100.00;100575.25;5020440;28;20285;-78
2023/09/30 18:07:33;;;;;;;;;;;;;;;8.18;100.00;100581.41;5022554;28;19917;-78
2023/09/30 18:09:58;;;;;;;;;;;;;;;8.20;100.00;100579.63;5023031;28;20408;-80
2023/09/30 18:12:26;;;;;;;;;;;;;;;8.19;100.00;100580.50;5022907;28;19956;-79
2023/09/30 18:14:51;;;;;;;;;;;;;;;8.19;100.00;100584.00;5022463;28;19924;-79
2023/09/30 18:17:16;;;;;;;;;;;;;;;8.18;100.00;100584.03;5020848;28;19921;-78
2023/09/30 18:19:43;;;;;;;;;;;;;;;8.53;100.00;100579.81;5021729;28;19917;-83